Time;durP1;ratioP1;P1;durP2;ratioP2;P2;SDS_P1;SDS_P2;PMS_P1;PMS_P2;Temp;Humidity;BMP_temperature;BMP_pressure;BME280_temperature;BME280_humidity;BME280_pressure;Samples;Min_cycle;Max_cycle;Signal;HPM_P1;HPM_P2
2024/01/30 00:01:42;;;;;;;20.40;3.60;;;10.60;99.90;;;;;;5062325;28;20040;-71
2024/01/30 00:04:08;;;;;;;12.02;4.38;;;10.60;99.90;;;;;;5047695;28;21375;-71
2024/01/30 00:06:33;;;;;;;11.23;4.15;;;10.60;99.90;;;;;;5063198;28;20537;-71
2024/01/30 00:08:59;;;;;;;15.68;5.32;;;10.60;99.90;;;;;;5053784;28;20089;-71
2024/01/30 00:11:25;;;;;;;10.43;3.67;;;10.60;99.90;;;;;;5054812;28;20042;-71
2024/01/30 00:13:52;;;;;;;11.88;3.72;;;10.60;99.90;;;;;;5062816;28;20818;-71
2024/01/30 00:16:22;;;;;;;15.45;4.43;;;10.60;99.90;;;;;;5049863;28;20028;-72
2024/01/30 00:18:48;;;;;;;9.35;3.70;;;10.60;99.90;;;;;;5056958;28;20025;-72
2024/01/30 00:21:14;;;;;;;10.07;3.72;;;10.60;99.90;;;;;;5047430;28;20032;-71
2024/01/30 00:23:39;;;;;;;11.90;3.30;;;10.70;99.90;;;;;;5060241;28;20036;-72
2024/01/30 00:26:06;;;;;;;16.48;4.22;;;10.70;99.90;;;;;;5045438;28;20039;-72
2024/01/30 00:28:31;;;;;;;10.85;3.70;;;10.70;99.90;;;;;;5063770;28;20801;-71
2024/01/30 00:30:57;;;;;;;18.40;3.65;;;10.70;99.90;;;;;;5047211;28;20036;-71
2024/01/30 00:33:22;;;;;;;17.67;5.28;;;10.80;99.90;;;;;;5061603;28;21369;-71
2024/01/30 00:35:48;;;;;;;21.60;4.72;;;10.70;99.90;;;;;;5053002;28;20041;-72
2024/01/30 00:38:14;;;;;;;25.00;4.22;;;10.70;99.90;;;;;;5056173;28;20310;-72
2024/01/30 00:40:39;;;;;;;14.43;4.35;;;10.70;99.90;;;;;;5050235;28;20040;-71
2024/01/30 00:43:05;;;;;;;18.35;3.97;;;10.70;99.90;;;;;;5060967;28;20078;-71
2024/01/30 00:45:31;;;;;;;19.58;4.47;;;10.70;99.90;;;;;;5043993;28;20039;-71
2024/01/30 00:47:56;;;;;;;13.50;3.78;;;10.70;99.90;;;;;;5065057;28;20139;-71
2024/01/30 00:50:22;;;;;;;11.98;3.47;;;10.70;99.90;;;;;;5048302;28;20080;-70
2024/01/30 00:52:48;;;;;;;15.20;3.33;;;10.70;99.90;;;;;;5053474;28;20087;-71
2024/01/30 00:55:14;;;;;;;11.35;4.20;;;10.60;99.90;;;;;;5067362;28;20033;-71
2024/01/30 00:57:40;;;;;;;15.18;4.53;;;10.60;99.90;;;;;;5051695;28;21265;-71
2024/01/30 01:00:09;;;;;;;12.55;2.90;;;10.60;99.90;;;;;;5066450;28;20032;-70
2024/01/30 01:02:35;;;;;;;7.45;3.55;;;10.50;99.90;;;;;;5049432;28;20036;-72
2024/01/30 01:05:03;;;;;;;10.88;3.10;;;10.50;99.90;;;;;;5065390;28;20095;-71
2024/01/30 01:07:28;;;;;;;15.63;3.15;;;10.40;99.90;;;;;;5050190;28;20174;-71
2024/01/30 01:09:54;;;;;;;12.10;2.40;;;10.40;99.90;;;;;;5066633;28;20028;-72
2024/01/30 01:12:19;;;;;;;6.03;1.88;;;10.40;99.90;;;;;;5045945;28;20139;-72
2024/01/30 01:14:45;;;;;;;7.30;1.95;;;10.40;99.90;;;;;;5066555;28;20085;-72
2024/01/30 01:17:11;;;;;;;3.08;0.90;;;10.40;99.90;;;;;;5050689;28;20433;-71
2024/01/30 01:19:37;;;;;;;6.82;0.85;;;10.40;99.90;;;;;;5061194;28;20449;-71
2024/01/30 01:22:03;;;;;;;3.78;1.08;;;10.40;99.90;;;;;;5052281;28;20111;-71
2024/01/30 01:24:31;;;;;;;8.98;1.10;;;10.20;99.90;;;;;;5059984;28;20040;-71
2024/01/30 01:26:58;;;;;;;5.22;1.35;;;10.20;99.90;;;;;;5050413;28;20039;-71
2024/01/30 01:29:28;;;;;;;5.18;1.05;;;10.30;99.90;;;;;;5064213;28;20047;-72
2024/01/30 01:31:55;;;;;;;9.30;0.88;;;10.20;99.90;;;;;;5049742;28;20028;-73
2024/01/30 01:34:21;;;;;;;8.43;1.48;;;10.00;99.90;;;;;;5060680;28;20403;-71
2024/01/30 01:36:47;;;;;;;9.07;1.48;;;10.00;99.90;;;;;;5065146;28;20233;-70
2024/01/30 01:39:13;;;;;;;13.63;0.73;;;10.00;99.90;;;;;;5047266;28;20073;-72
2024/01/30 01:41:39;;;;;;;7.53;1.17;;;10.00;99.90;;;;;;5065413;28;20032;-71
2024/01/30 01:44:05;;;;;;;12.93;1.58;;;10.00;99.90;;;;;;5050701;28;20320;-71
2024/01/30 01:46:33;;;;;;;3.55;0.85;;;10.00;99.90;;;;;;5058245;28;20050;-71
2024/01/30 01:49:00;;;;;;;3.97;0.52;;;10.00;99.90;;;;;;5050617;28;20040;-72
2024/01/30 01:51:27;;;;;;;2.38;1.02;;;10.00;99.90;;;;;;5058759;28;20033;-72
2024/01/30 01:53:56;;;;;;;10.38;1.40;;;9.90;99.90;;;;;;5049711;28;20492;-71
2024/01/30 01:56:23;;;;;;;8.48;1.60;;;9.80;99.90;;;;;;5069984;28;20585;-71
2024/01/30 01:58:51;;;;;;;9.10;1.65;;;9.70;99.90;;;;;;5042679;28;20036;-72
2024/01/30 02:01:20;;;;;;;10.15;1.08;;;9.70;99.90;;;;;;5064679;28;20060;-70
2024/01/30 02:03:47;;;;;;;12.73;1.15;;;9.70;99.90;;;;;;5053197;28;20037;-71
2024/01/30 02:06:14;;;;;;;6.07;1.17;;;9.70;99.90;;;;;;5062015;28;20036;-71
2024/01/30 02:08:40;;;;;;;8.80;0.73;;;9.70;99.90;;;;;;5050290;28;20032;-71
2024/01/30 02:11:06;;;;;;;7.40;1.00;;;9.70;99.90;;;;;;5061958;28;20191;-72
2024/01/30 02:13:32;;;;;;;8.80;0.77;;;9.70;99.90;;;;;;5047724;28;20119;-71
2024/01/30 02:15:57;;;;;;;6.40;0.85;;;9.70;99.90;;;;;;5068247;28;20042;-71
2024/01/30 02:18:23;;;;;;;6.97;1.10;;;9.70;99.90;;;;;;5051048;28;20038;-72
2024/01/30 02:20:51;;;;;;;22.65;1.77;;;9.70;99.90;;;;;;5062637;28;20037;-72
2024/01/30 02:23:17;;;;;;;3.47;1.00;;;9.70;99.90;;;;;;5064785;28;20086;-72
2024/01/30 02:25:44;;;;;;;5.63;0.50;;;9.70;99.90;;;;;;5047434;28;20028;-70
2024/01/30 02:28:12;;;;;;;8.75;0.68;;;9.70;99.90;;;;;;5064989;28;20023;-71
2024/01/30 02:30:39;;;;;;;3.40;0.32;;;9.70;99.90;;;;;;5049295;28;20400;-70
2024/01/30 02:33:04;;;;;;;13.93;1.73;;;9.70;99.90;;;;;;5058397;28;21250;-71
2024/01/30 02:35:30;;;;;;;2.90;0.60;;;9.70;99.90;;;;;;5048872;28;20702;-70
2024/01/30 02:37:56;;;;;;;4.85;1.13;;;9.70;99.90;;;;;;5061683;28;20028;-71
2024/01/30 02:40:21;;;;;;;2.85;0.82;;;9.70;99.90;;;;;;5050700;28;20033;-71
2024/01/30 02:42:47;;;;;;;13.55;0.98;;;9.60;99.90;;;;;;5065095;28;20168;-71
2024/01/30 02:45:13;;;;;;;6.63;0.93;;;9.60;99.90;;;;;;5044493;28;20513;-72
2024/01/30 02:47:40;;;;;;;5.60;0.95;;;9.60;99.90;;;;;;5067790;28;20400;-71
2024/01/30 02:50:06;;;;;;;4.35;0.30;;;9.70;99.90;;;;;;5051335;28;20067;-71
2024/01/30 02:52:32;;;;;;;5.43;1.10;;;9.70;99.90;;;;;;5059202;28;21016;-71
2024/01/30 02:54:58;;;;;;;6.72;1.00;;;9.70;99.90;;;;;;5049312;28;20494;-71
2024/01/30 02:57:23;;;;;;;12.25;1.67;;;9.70;99.90;;;;;;5064142;28;20029;-71
2024/01/30 02:59:49;;;;;;;2.92;0.93;;;9.70;99.90;;;;;;5045785;28;20071;-71
2024/01/30 03:02:15;;;;;;;9.88;0.88;;;9.70;99.90;;;;;;5061969;28;21122;-71
2024/01/30 03:04:41;;;;;;;7.70;0.85;;;9.60;99.90;;;;;;5062461;28;20042;-71
2024/01/30 03:07:07;;;;;;;7.07;1.23;;;9.60;99.90;;;;;;5046257;28;20457;-71
2024/01/30 03:09:33;;;;;;;4.93;1.50;;;9.60;99.90;;;;;;5065287;28;20049;-72
2024/01/30 03:11:58;;;;;;;8.88;0.65;;;9.60;99.90;;;;;;5047915;28;20060;-71
2024/01/30 03:14:24;;;;;;;3.95;0.77;;;9.60;99.90;;;;;;5064794;28;20062;-71
2024/01/30 03:16:50;;;;;;;3.08;0.40;;;9.60;99.90;;;;;;5050777;28;20088;-71
2024/01/30 03:19:15;;;;;;;15.02;1.20;;;9.60;99.90;;;;;;5055616;28;21090;-71
2024/01/30 03:21:41;;;;;;;10.25;0.88;;;9.60;99.90;;;;;;5048325;28;20530;-72
2024/01/30 03:24:07;;;;;;;9.40;1.33;;;9.50;99.90;;;;;;5058580;28;20043;-71
2024/01/30 03:26:32;;;;;;;1.88;0.75;;;9.50;99.90;;;;;;5045108;28;20525;-71
2024/01/30 03:28:58;;;;;;;10.50;0.80;;;9.50;99.90;;;;;;5064976;28;20063;-71
2024/01/30 03:31:24;;;;;;;4.43;1.08;;;9.50;99.90;;;;;;5049837;28;20068;-73
2024/01/30 03:33:49;;;;;;;5.65;0.82;;;9.40;99.90;;;;;;5062310;28;20036;-72
2024/01/30 03:36:16;;;;;;;6.82;0.50;;;9.40;99.90;;;;;;5049068;28;20062;-72
2024/01/30 03:38:42;;;;;;;4.13;0.85;;;9.40;99.90;;;;;;5061235;28;20376;-71
2024/01/30 03:41:09;;;;;;;4.90;1.05;;;9.40;99.90;;;;;;5049610;28;20037;-72
2024/01/30 03:43:35;;;;;;;8.07;0.80;;;9.40;99.90;;;;;;5063074;28;20032;-73
2024/01/30 03:46:02;;;;;;;9.50;0.88;;;9.30;99.90;;;;;;5057298;28;20369;-72
2024/01/30 03:48:28;;;;;;;10.60;1.15;;;9.30;99.90;;;;;;5051769;28;20214;-72
2024/01/30 03:50:54;;;;;;;4.93;0.75;;;9.30;99.90;;;;;;5057716;28;20060;-72
2024/01/30 03:53:19;;;;;;;9.27;0.68;;;9.20;99.90;;;;;;5041793;28;20578;-71
2024/01/30 03:55:45;;;;;;;2.22;1.00;;;9.20;99.90;;;;;;5060863;28;20042;-73
2024/01/30 03:58:11;;;;;;;4.97;1.02;;;9.10;99.90;;;;;;5048312;28;20042;-71
2024/01/30 04:00:37;;;;;;;7.63;1.17;;;9.10;99.90;;;;;;5059097;28;20073;-71
2024/01/30 04:03:03;;;;;;;11.80;0.65;;;9.10;99.90;;;;;;5049567;28;20066;-72
2024/01/30 04:05:28;;;;;;;1.55;0.43;;;9.10;99.90;;;;;;5058475;28;20032;-72
2024/01/30 04:07:54;;;;;;;16.95;1.45;;;9.10;99.90;;;;;;5048898;28;20039;-73
2024/01/30 04:10:20;;;;;;;6.25;1.25;;;9.10;99.90;;;;;;5065658;28;20162;-72
2024/01/30 04:12:46;;;;;;;7.60;0.63;;;9.10;99.90;;;;;;5046613;28;20040;-71
2024/01/30 04:15:13;;;;;;;2.58;0.82;;;9.20;99.90;;;;;;5062881;28;20036;-72
2024/01/30 04:17:39;;;;;;;2.47;0.85;;;9.20;99.90;;;;;;5046736;28;20044;-71
2024/01/30 04:20:05;;;;;;;2.65;0.55;;;9.20;99.90;;;;;;5058693;28;20032;-71
2024/01/30 04:22:31;;;;;;;4.00;0.95;;;9.30;99.90;;;;;;5048696;28;20384;-70
2024/01/30 04:24:57;;;;;;;3.88;0.80;;;9.30;99.90;;;;;;5050223;28;21130;-71
2024/01/30 04:27:22;;;;;;;5.35;0.60;;;9.30;99.90;;;;;;5059523;28;20082;-72
2024/01/30 04:29:48;;;;;;;5.35;1.08;;;9.30;99.90;;;;;;5051081;28;20063;-72
2024/01/30 04:32:14;;;;;;;6.60;0.95;;;9.40;99.90;;;;;;5066793;28;20037;-71
2024/01/30 04:34:39;;;;;;;7.10;0.90;;;9.40;99.90;;;;;;5058337;28;20107;-71
2024/01/30 04:37:05;;;;;;;19.15;1.50;;;9.30;99.90;;;;;;5070007;28;20499;-70
2024/01/30 04:39:33;;;;;;;3.75;0.60;;;9.20;99.90;;;;;;5051402;28;20465;-72
2024/01/30 04:41:59;;;;;;;5.53;1.13;;;9.20;99.90;;;;;;5071088;28;20032;-72
2024/01/30 04:44:25;;;;;;;5.10;0.82;;;9.20;99.90;;;;;;5055029;28;20040;-71
2024/01/30 04:46:50;;;;;;;8.95;1.27;;;9.20;99.90;;;;;;5065144;28;20048;-71
2024/01/30 04:49:16;;;;;;;7.65;0.88;;;9.20;99.90;;;;;;5054774;28;20036;-72
2024/01/30 04:51:41;;;;;;;1.85;0.32;;;9.10;99.90;;;;;;5064544;28;20524;-71
2024/01/30 04:54:08;;;;;;;6.32;1.10;;;9.10;99.90;;;;;;5046952;28;20765;-72
2024/01/30 04:56:35;;;;;;;4.63;0.50;;;9.10;99.90;;;;;;5066095;28;20060;-72
2024/01/30 04:59:02;;;;;;;1.88;0.20;;;9.20;99.90;;;;;;5045809;28;20028;-72
2024/01/30 05:01:28;;;;;;;0.82;0.25;;;9.10;99.90;;;;;;5063466;28;20299;-71
2024/01/30 05:03:53;;;;;;;3.80;0.98;;;9.20;99.90;;;;;;5047421;28;20120;-71
2024/01/30 05:06:27;;;;;;;1.88;0.90;;;9.20;99.90;;;;;;5054917;28;20500;-71
2024/01/30 05:08:53;;;;;;;6.55;0.90;;;9.20;99.90;;;;;;5060853;28;20032;-72
2024/01/30 05:11:19;;;;;;;5.10;1.85;;;9.20;99.90;;;;;;5064262;28;20096;-72
2024/01/30 05:13:45;;;;;;;1.90;0.80;;;9.10;99.90;;;;;;5064652;28;20503;-72
2024/01/30 05:16:10;;;;;;;10.98;0.50;;;9.10;99.90;;;;;;5039874;28;20068;-72
2024/01/30 05:18:36;;;;;;;7.47;0.70;;;9.10;99.90;;;;;;5063906;28;20060;-72
2024/01/30 05:21:03;;;;;;;4.72;0.80;;;9.20;99.90;;;;;;5049518;28;20059;-71
2024/01/30 05:23:29;;;;;;;5.65;1.10;;;9.20;99.90;;;;;;5065561;28;20035;-72
2024/01/30 05:25:54;;;;;;;2.33;0.57;;;9.10;99.90;;;;;;5045662;28;20060;-72
2024/01/30 05:28:20;;;;;;;5.50;0.40;;;9.10;99.90;;;;;;5064201;28;20119;-71
2024/01/30 05:30:46;;;;;;;1.15;0.98;;;9.10;99.90;;;;;;5050423;28;20054;-71
2024/01/30 05:33:13;;;;;;;0.35;0.20;;;9.00;99.90;;;;;;5060339;28;20037;-72
2024/01/30 05:35:38;;;;;;;2.92;0.20;;;9.00;99.90;;;;;;5051593;28;20399;-72
2024/01/30 05:38:04;;;;;;;0.95;0.30;;;9.00;99.90;;;;;;5065733;28;20084;-71
2024/01/30 05:40:30;;;;;;;4.03;0.30;;;9.00;99.90;;;;;;5051194;28;20441;-72
2024/01/30 05:42:58;;;;;;;8.05;0.30;;;9.10;99.90;;;;;;5064639;28;20031;-72
2024/01/30 05:45:23;;;;;;;5.03;0.60;;;9.00;99.90;;;;;;5049039;28;20563;-72
2024/01/30 05:47:49;;;;;;;1.95;0.40;;;9.00;99.90;;;;;;5068837;28;20048;-72
2024/01/30 05:50:15;;;;;;;5.05;0.57;;;9.10;99.90;;;;;;5058361;28;20047;-71
2024/01/30 05:52:41;;;;;;;14.80;1.00;;;9.10;99.90;;;;;;5052584;28;20063;-71
2024/01/30 05:55:07;;;;;;;0.40;0.35;;;9.20;99.90;;;;;;5064958;28;20036;-71
2024/01/30 05:57:32;;;;;;;8.55;1.15;;;9.10;99.90;;;;;;5049721;28;20412;-71
2024/01/30 05:59:58;;;;;;;3.65;0.45;;;9.10;99.90;;;;;;5061000;28;20035;-71
2024/01/30 06:02:23;;;;;;;4.03;0.88;;;9.10;99.90;;;;;;5053149;28;20020;-71
2024/01/30 06:04:49;;;;;;;2.58;0.68;;;9.10;99.90;;;;;;5067978;28;20620;-71
2024/01/30 06:07:15;;;;;;;5.47;0.32;;;9.10;99.90;;;;;;5045021;28;20632;-72
2024/01/30 06:09:41;;;;;;;1.98;0.80;;;9.20;99.90;;;;;;5065002;28;20055;-71
2024/01/30 06:12:06;;;;;;;3.63;0.75;;;9.20;99.90;;;;;;5047253;28;20127;-71
2024/01/30 06:14:33;;;;;;;0.82;0.35;;;9.20;99.90;;;;;;5064421;28;20395;-71
2024/01/30 06:16:59;;;;;;;0.80;0.70;;;9.20;99.90;;;;;;5054361;28;20041;-72
2024/01/30 06:19:25;;;;;;;13.43;0.40;;;9.20;99.90;;;;;;5045585;28;20020;-71
2024/01/30 06:21:50;;;;;;;1.73;0.82;;;9.20;99.90;;;;;;5047501;28;20047;-71
2024/01/30 06:24:16;;;;;;;1.05;0.30;;;9.20;99.90;;;;;;5061249;28;20331;-71
2024/01/30 06:26:42;;;;;;;0.60;0.40;;;9.20;99.90;;;;;;5047330;28;20021;-72
2024/01/30 06:29:08;;;;;;;1.45;0.38;;;9.10;99.90;;;;;;5048163;28;20593;-71
2024/01/30 06:31:40;;;;;;;7.10;0.57;;;9.10;99.90;;;;;;5064572;28;20466;-71
2024/01/30 06:34:05;;;;;;;3.13;0.40;;;9.10;99.90;;;;;;5057429;28;20101;-71
2024/01/30 06:36:31;;;;;;;7.22;0.45;;;9.20;99.90;;;;;;5061630;28;20033;-71
2024/01/30 06:38:56;;;;;;;11.77;0.55;;;9.10;99.90;;;;;;5050825;28;20486;-71
2024/01/30 06:41:22;;;;;;;1.45;0.63;;;9.10;99.90;;;;;;5060485;28;20048;-71
2024/01/30 06:43:48;;;;;;;0.10;0.10;;;9.00;99.90;;;;;;5030911;28;20028;-71
2024/01/30 06:46:13;;;;;;;0.47;0.30;;;9.00;99.90;;;;;;5060554;28;20032;-70
2024/01/30 06:48:40;;;;;;;3.97;0.50;;;9.00;99.90;;;;;;5038844;28;20040;-71
2024/01/30 06:51:06;;;;;;;0.38;0.32;;;9.00;99.90;;;;;;5056704;28;21058;-71
2024/01/30 06:53:31;;;;;;;0.43;0.40;;;9.00;99.90;;;;;;5039390;28;20401;-72
2024/01/30 06:55:57;;;;;;;11.75;0.50;;;9.00;99.90;;;;;;5060229;28;20050;-72
2024/01/30 06:58:23;;;;;;;2.95;0.50;;;9.00;99.90;;;;;;5042729;28;20497;-72
2024/01/30 07:00:48;;;;;;;0.95;0.38;;;9.00;99.90;;;;;;5050057;28;20033;-71
2024/01/30 07:03:14;;;;;;;0.10;0.10;;;9.00;99.90;;;;;;5028242;28;20028;-71
2024/01/30 07:05:40;;;;;;;0.10;0.10;;;9.00;99.90;;;;;;5048754;28;20048;-72
2024/01/30 07:08:06;;;;;;;0.10;0.10;;;9.00;99.90;;;;;;5039505;28;20851;-71
2024/01/30 07:10:31;;;;;;;0.30;0.10;;;9.00;99.90;;;;;;5053891;28;20468;-71
2024/01/30 07:12:57;;;;;;;1.63;0.13;;;9.00;99.90;;;;;;5038706;28;20450;-71
2024/01/30 07:15:22;;;;;;;1.25;0.43;;;9.10;99.90;;;;;;5035849;28;20052;-72
2024/01/30 07:17:48;;;;;;;1.30;0.20;;;9.10;99.90;;;;;;5053969;28;20028;-72
2024/01/30 07:20:16;;;;;;;0.03;0.03;;;;;;;;;;5032678;28;20028;-72
2024/01/30 07:22:44;;;;;;;1.40;0.20;;;;;;;;;;5053145;28;20039;-72
2024/01/30 07:25:10;;;;;;;0.10;0.10;;;9.20;99.90;;;;;;5035691;28;20153;-72
2024/01/30 07:27:35;;;;;;;0.20;0.20;;;9.20;99.90;;;;;;5048816;28;21435;-71
2024/01/30 07:30:01;;;;;;;2.20;0.20;;;9.10;99.90;;;;;;5043608;28;20044;-71
2024/01/30 07:32:27;;;;;;;1.75;0.28;;;9.10;99.90;;;;;;5058582;28;20031;-71
2024/01/30 07:34:52;;;;;;;0.10;0.10;;;9.10;99.90;;;;;;5039536;28;20064;-71
2024/01/30 07:37:18;;;;;;;2.50;1.40;;;9.20;99.90;;;;;;5051056;28;20511;-70
2024/01/30 07:39:44;;;;;;;6.28;0.82;;;9.10;99.90;;;;;;5030371;28;20040;-71
2024/01/30 07:42:10;;;;;;;1.42;0.30;;;9.10;99.90;;;;;;5049249;28;21243;-72
2024/01/30 07:44:36;;;;;;;2.75;0.20;;;9.10;99.90;;;;;;5033315;28;20039;-72
2024/01/30 07:47:02;;;;;;;1.67;0.63;;;9.00;99.90;;;;;;5044919;28;20140;-72
2024/01/30 07:49:28;;;;;;;0.30;0.30;;;9.00;99.90;;;;;;5046591;28;20292;-71
2024/01/30 07:51:54;;;;;;;0.30;0.20;;;8.80;99.90;;;;;;5057782;28;20035;-73
2024/01/30 07:54:19;;;;;;;0.13;0.13;;;8.80;99.90;;;;;;5047425;28;20475;-71
2024/01/30 07:56:45;;;;;;;0.57;0.22;;;8.80;99.90;;;;;;5046958;28;20032;-72
2024/01/30 07:59:11;;;;;;;5.72;0.40;;;8.80;99.90;;;;;;5052531;28;20484;-71
2024/01/30 08:01:37;;;;;;;4.40;0.75;;;8.80;99.90;;;;;;5039600;28;20428;-71
2024/01/30 08:04:03;;;;;;;1.40;0.28;;;8.80;99.90;;;;;;5057879;28;20027;-71
2024/01/30 08:06:29;;;;;;;1.55;0.45;;;8.80;99.90;;;;;;5033791;28;20412;-71
2024/01/30 08:08:54;;;;;;;0.35;0.35;;;8.80;99.90;;;;;;5049580;28;20060;-72
2024/01/30 08:11:25;;;;;;;5.45;0.60;;;8.80;99.90;;;;;;5039350;28;20403;-71
2024/01/30 08:13:52;;;;;;;0.47;0.40;;;8.80;99.90;;;;;;5059073;28;20073;-71
2024/01/30 08:16:17;;;;;;;0.50;0.45;;;8.80;99.90;;;;;;5043073;28;20093;-71
2024/01/30 08:18:43;;;;;;;1.23;0.63;;;8.80;99.90;;;;;;5056601;28;20032;-72
2024/01/30 08:21:09;;;;;;;1.20;0.90;;;8.90;99.90;;;;;;5040351;28;20568;-71
2024/01/30 08:23:35;;;;;;;2.25;0.65;;;8.90;99.90;;;;;;5052913;28;21691;-71
2024/01/30 08:26:01;;;;;;;2.05;0.93;;;8.90;99.90;;;;;;5039421;28;20029;-73
2024/01/30 08:28:26;;;;;;;1.27;0.52;;;8.90;99.90;;;;;;5046635;28;20066;-72
2024/01/30 08:30:52;;;;;;;1.58;0.80;;;8.90;99.90;;;;;;5042816;28;20047;-71
2024/01/30 08:33:18;;;;;;;0.40;0.40;;;8.90;99.90;;;;;;5056378;28;20024;-72
2024/01/30 08:35:44;;;;;;;3.15;0.47;;;8.90;99.90;;;;;;5055449;28;20032;-72
2024/01/30 08:38:10;;;;;;;1.30;0.50;;;8.90;99.90;;;;;;5045629;28;20155;-72
2024/01/30 08:40:35;;;;;;;0.40;0.40;;;8.90;99.90;;;;;;5048372;28;20025;-71
2024/01/30 08:43:01;;;;;;;1.60;1.13;;;9.00;99.90;;;;;;5039163;28;21278;-71
2024/01/30 08:45:26;;;;;;;2.85;0.45;;;9.00;99.90;;;;;;5048539;28;20090;-71
2024/01/30 08:47:52;;;;;;;2.17;1.05;;;9.00;99.90;;;;;;5027945;28;20052;-72
2024/01/30 08:50:18;;;;;;;0.82;0.82;;;9.00;99.90;;;;;;5050171;28;20029;-72
2024/01/30 08:52:44;;;;;;;1.35;0.65;;;9.00;99.90;;;;;;5042438;28;20036;-69
2024/01/30 08:55:10;;;;;;;0.47;0.40;;;9.00;99.90;;;;;;5053480;28;20075;-72
2024/01/30 08:57:35;;;;;;;2.05;0.77;;;9.00;99.90;;;;;;5042564;28;20684;-71
2024/01/30 09:00:04;;;;;;;0.90;0.63;;;9.00;99.90;;;;;;5052883;28;20522;-71
2024/01/30 09:02:30;;;;;;;3.63;1.73;;;9.00;99.90;;;;;;5033718;28;20350;-71
2024/01/30 09:04:55;;;;;;;0.52;0.52;;;9.00;99.90;;;;;;5044344;28;20089;-71
2024/01/30 09:07:21;;;;;;;2.33;0.65;;;9.10;99.90;;;;;;5034358;28;21220;-71
2024/01/30 09:09:47;;;;;;;3.63;1.02;;;9.00;99.90;;;;;;5049716;28;20047;-72
2024/01/30 09:12:12;;;;;;;5.63;1.00;;;9.10;99.90;;;;;;5043977;28;20037;-72
2024/01/30 09:14:40;;;;;;;1.02;0.40;;;9.10;99.90;;;;;;5054179;28;20037;-70
2024/01/30 09:17:05;;;;;;;1.67;0.65;;;9.10;99.90;;;;;;5057147;28;20063;-71
2024/01/30 09:19:31;;;;;;;3.80;0.63;;;9.20;99.90;;;;;;5055847;28;20469;-71
2024/01/30 09:21:57;;;;;;;1.50;0.95;;;9.30;99.90;;;;;;5056908;28;20032;-71
2024/01/30 09:24:22;;;;;;;3.20;1.25;;;9.40;99.90;;;;;;5051932;28;20047;-71
2024/01/30 09:26:48;;;;;;;0.90;0.57;;;9.40;99.90;;;;;;5057033;28;20040;-72
2024/01/30 09:29:14;;;;;;;1.38;0.93;;;9.50;99.90;;;;;;5048201;28;20583;-72
2024/01/30 09:31:43;;;;;;;1.52;0.60;;;9.50;99.90;;;;;;5062384;28;20046;-71
2024/01/30 09:34:09;;;;;;;4.20;0.95;;;9.60;99.90;;;;;;5046510;28;20040;-71
2024/01/30 09:36:35;;;;;;;3.67;0.80;;;9.60;99.90;;;;;;5054399;28;20047;-71
2024/01/30 09:39:00;;;;;;;3.78;1.27;;;9.60;99.90;;;;;;5051963;28;20036;-72
2024/01/30 09:41:28;;;;;;;2.53;1.15;;;9.70;99.90;;;;;;5040025;28;20040;-72
2024/01/30 09:43:57;;;;;;;1.85;1.00;;;9.70;99.90;;;;;;5050902;28;20596;-75
2024/01/30 09:46:27;;;;;;;2.13;0.77;;;9.60;99.90;;;;;;5059161;28;20674;-73
2024/01/30 09:48:55;;;;;;;2.08;1.02;;;9.60;99.90;;;;;;5046874;28;20052;-74
2024/01/30 09:51:22;;;;;;;7.25;0.90;;;9.70;99.90;;;;;;5062643;28;20059;-75
2024/01/30 09:53:49;;;;;;;3.90;1.30;;;9.80;99.90;;;;;;5041263;28;20154;-73
2024/01/30 09:56:15;;;;;;;2.28;1.17;;;9.90;99.90;;;;;;5063425;28;20494;-77
2024/01/30 09:58:41;;;;;;;0.80;0.60;;;9.90;99.90;;;;;;5049244;28;20035;-74
2024/01/30 10:01:07;;;;;;;4.47;0.45;;;9.90;99.90;;;;;;5046463;28;20527;-73
2024/01/30 10:03:33;;;;;;;7.05;0.85;;;9.90;99.90;;;;;;5055549;28;20067;-74
2024/01/30 10:06:00;;;;;;;8.07;1.35;;;10.10;99.90;;;;;;5047066;28;20032;-74
2024/01/30 10:08:26;;;;;;;1.95;1.02;;;10.10;99.90;;;;;;5057800;28;20036;-71
2024/01/30 10:10:52;;;;;;;4.40;0.88;;;10.10;99.90;;;;;;5047438;28;20024;-73
2024/01/30 10:13:18;;;;;;;3.05;1.00;;;10.40;99.90;;;;;;5055564;28;20721;-73
2024/01/30 10:15:44;;;;;;;7.45;0.55;;;10.40;99.90;;;;;;5044020;28;20028;-74
2024/01/30 10:18:11;;;;;;;3.72;0.65;;;10.50;99.90;;;;;;5058388;28;21571;-71
2024/01/30 10:20:36;;;;;;;1.75;0.30;;;10.50;99.90;;;;;;5042317;28;20116;-74
2024/01/30 10:23:03;;;;;;;3.88;1.02;;;10.40;99.90;;;;;;5056343;28;20546;-72
2024/01/30 10:25:30;;;;;;;2.38;0.68;;;10.30;99.90;;;;;;5045532;28;20028;-71
2024/01/30 10:27:58;;;;;;;5.35;0.85;;;10.30;99.90;;;;;;5052278;28;20032;-71
2024/01/30 10:30:24;;;;;;;8.75;0.93;;;10.50;99.90;;;;;;5044224;28;20395;-71
2024/01/30 10:32:51;;;;;;;3.95;0.82;;;10.50;99.90;;;;;;5054746;28;20496;-72
2024/01/30 10:35:17;;;;;;;2.25;0.82;;;10.40;99.90;;;;;;5035019;28;20082;-72
2024/01/30 10:37:45;;;;;;;0.68;0.57;;;10.40;99.90;;;;;;5056384;28;20640;-72
2024/01/30 10:40:14;;;;;;;3.90;0.90;;;10.50;99.90;;;;;;5048105;28;20025;-72
2024/01/30 10:42:43;;;;;;;1.37;0.60;;;10.60;99.90;;;;;;5055824;28;20092;-74
2024/01/30 10:45:15;;;;;;;6.55;1.00;;;10.70;99.90;;;;;;5048289;28;20261;-71
2024/01/30 10:47:44;;;;;;;3.85;0.90;;;10.80;99.90;;;;;;5043523;28;20468;-72
2024/01/30 10:50:10;;;;;;;9.70;0.65;;;10.80;99.90;;;;;;5043201;28;20503;-73
2024/01/30 10:52:36;;;;;;;4.78;1.02;;;10.90;99.90;;;;;;5040337;28;20697;-70
2024/01/30 10:55:05;;;;;;;3.83;0.60;;;;;;;;;;5045519;28;20273;-72
2024/01/30 10:57:34;;;;;;;3.13;1.13;;;10.80;99.90;;;;;;5033465;28;20036;-72
2024/01/30 11:00:05;;;;;;;3.30;1.00;;;10.60;99.90;;;;;;5042877;28;20391;-70
2024/01/30 11:02:32;;;;;;;3.47;0.95;;;10.60;99.90;;;;;;5027341;28;20686;-72
2024/01/30 11:04:59;;;;;;;3.00;0.85;;;10.70;99.90;;;;;;5044297;28;20155;-71
2024/01/30 11:07:27;;;;;;;1.75;0.90;;;10.70;99.90;;;;;;5026614;28;20147;-71
2024/01/30 11:10:01;;;;;;;5.70;0.65;;;10.70;99.90;;;;;;5052437;28;20032;-70
2024/01/30 11:12:28;;;;;;;3.45;0.90;;;10.60;99.90;;;;;;5039721;28;20036;-73
2024/01/30 11:15:17;;;;;;;1.75;0.90;;;;;;;;;;5049735;28;20492;-70
2024/01/30 11:17:43;;;;;;;7.20;1.08;;;10.90;99.90;;;;;;5041428;28;20412;-70
2024/01/30 11:20:21;;;;;;;4.20;1.00;;;10.80;99.90;;;;;;5052040;28;20111;-73
2024/01/30 11:22:50;;;;;;;0.40;0.40;;;10.90;99.90;;;;;;5040752;28;20060;-72
2024/01/30 11:25:17;;;;;;;2.17;1.25;;;10.90;99.90;;;;;;5056781;28;20029;-71
2024/01/30 11:27:44;;;;;;;3.03;1.02;;;10.80;99.90;;;;;;5039311;28;20044;-70
2024/01/30 11:30:10;;;;;;;9.77;1.00;;;10.80;99.90;;;;;;5057412;28;20044;-72
2024/01/30 11:32:36;;;;;;;5.45;1.02;;;10.80;99.90;;;;;;5043162;28;20032;-71
2024/01/30 11:35:06;;;;;;;3.05;0.88;;;11.00;99.90;;;;;;5050623;28;20363;-72
2024/01/30 11:37:32;;;;;;;3.15;0.75;;;11.10;99.90;;;;;;5035386;28;20041;-73
2024/01/30 11:39:59;;;;;;;3.97;0.95;;;11.40;99.90;;;;;;5056587;28;20040;-73
2024/01/30 11:42:26;;;;;;;7.45;1.00;;;11.50;99.90;;;;;;5037244;28;20031;-71
2024/01/30 11:44:51;;;;;;;3.85;0.82;;;11.40;99.90;;;;;;5056621;28;20039;-72
2024/01/30 11:47:17;;;;;;;2.08;1.10;;;11.50;99.90;;;;;;5042842;28;20489;-73
2024/01/30 11:49:43;;;;;;;2.28;0.73;;;11.30;99.90;;;;;;5055712;28;20028;-72
2024/01/30 11:52:09;;;;;;;1.85;0.70;;;11.10;99.90;;;;;;5058360;28;20035;-72
2024/01/30 11:54:35;;;;;;;2.35;0.98;;;11.10;99.90;;;;;;5041259;28;20044;-71
2024/01/30 11:57:01;;;;;;;1.98;0.52;;;11.00;99.90;;;;;;5059101;28;20478;-71
2024/01/30 11:59:27;;;;;;;5.13;1.70;;;10.90;99.90;;;;;;5042762;28;20474;-73
2024/01/30 12:01:52;;;;;;;1.55;0.88;;;10.70;99.90;;;;;;5056642;28;20392;-71
2024/01/30 12:04:18;;;;;;;1.05;0.82;;;10.60;99.90;;;;;;5042263;28;20042;-71
2024/01/30 12:06:44;;;;;;;0.43;0.40;;;10.40;99.90;;;;;;5052989;28;20161;-70
2024/01/30 12:09:13;;;;;;;0.52;0.47;;;10.30;99.90;;;;;;5036963;28;20060;-71
2024/01/30 12:11:47;;;;;;;2.90;1.00;;;10.20;99.90;;;;;;5059886;28;20035;-70
2024/01/30 12:14:13;;;;;;;4.38;0.90;;;10.10;99.90;;;;;;5042058;28;20047;-71
2024/01/30 12:16:39;;;;;;;2.70;0.75;;;10.00;99.90;;;;;;5056687;28;20039;-70
2024/01/30 12:19:04;;;;;;;2.05;0.77;;;10.00;99.90;;;;;;5040490;28;20028;-70
2024/01/30 12:21:30;;;;;;;0.40;0.40;;;9.80;99.90;;;;;;5055044;28;20032;-70
2024/01/30 12:23:57;;;;;;;2.20;0.50;;;9.80;99.90;;;;;;5038419;28;20036;-70
2024/01/30 12:26:25;;;;;;;1.38;0.57;;;9.80;99.90;;;;;;5055155;28;20173;-71
2024/01/30 12:28:55;;;;;;;7.13;0.68;;;9.80;99.90;;;;;;5035702;28;20040;-71
2024/01/30 12:31:28;;;;;;;3.30;0.98;;;9.70;99.90;;;;;;5050240;28;20157;-70
2024/01/30 12:33:55;;;;;;;3.20;0.65;;;9.80;99.90;;;;;;5041715;28;20588;-71
2024/01/30 12:36:22;;;;;;;1.65;0.80;;;9.70;99.90;;;;;;5050047;28;20032;-69
2024/01/30 12:38:47;;;;;;;0.95;0.60;;;9.70;99.90;;;;;;5043388;28;20029;-72
2024/01/30 12:41:13;;;;;;;1.33;0.73;;;9.60;99.90;;;;;;5029707;28;20068;-72
2024/01/30 12:43:39;;;;;;;6.80;0.70;;;9.60;99.90;;;;;;5041199;28;20036;-73
2024/01/30 12:46:05;;;;;;;2.60;0.73;;;9.50;99.90;;;;;;5041679;28;20154;-71
2024/01/30 12:48:31;;;;;;;5.13;1.52;;;9.50;99.90;;;;;;5050648;28;20068;-75